Flugplatz Barßel

EDXL · 下萨克森, 德国

罗盘
风向 的 风向 290° Flugplatz Barßel 12/30
风: 8 kt, 3 beaufort

8 kt

1 kt
改变
0 ft 2.000 4.000 6.000 8.000 10.000
Cloud Cloud Cloud Cloud
SCT 1.300
Cloud Cloud Cloud Cloud
SCT 8.000
Cloud Cloud Cloud Cloud Cloud Cloud
BKN 10.000
METAR ETNT 021120Z 29008KT 9999 SCT013 SCT080 BKN100 07/05 Q1020 BLACKBLU

METAR Flugplatz Barßel - EDXL

Flugplatz Barßel是,德国中的小机场。 该机场有一条跑道: 12/30. 该领域的国际民航组织标志是EDXL.

这份报告是针对2023年2月2日 12:20, 当地时间在Wittmundhafen Air Base进行的。

机场观察

风向为290°,速度为8 kt。

可见度为10 km 或者更多。

有疏云,零星散落的云朵在1.300 ft的高度, 疏云,零星散落的云朵在8.000 ft的高度 和 碎云在10.000 ft的高度。 破损或更高的上限为10.000 ft。

温度为7 °C,阵风为3 °C。 露点为5 °C,相对湿度为87%。 海平面上的气压为1020 hPa (QNH)。

白天

今天,太阳从08:11升起,在17:13降落。 这适用于Flugplatz Barßel,世界夏令时可能有所不同。 当地时间与世界标准时间之间的时差为+1 小时。 当前,没有夏令时有效。

公司介绍

我们没有关于这个机场的公司信息。

体会

到Vliegles.nl去找飞行课程,跳伞和其他飞行体验。 浏览页面,了解Flugplatz Barßel附近所有可用的活动。 你也可以使用搜索功能来寻找你所在地附近的特定飞行课程、跳伞或其他飞行体验。

跑道

Id 标题 侧风 逆风 侧风 %
12/30 120°-300° 1 kt 8 kt 17 %

逆风成分最大的方向会被突出显示,并用于横风计算。 这并不一定意味着这个方向在使用。

乌云

1.300 ft SCT 疏云,零星散落的云朵
8.000 ft SCT 疏云,零星散落的云朵
10.000 ft BKN 碎云

温度 & 天气

温度 7 °C
露点 5 °C
相对湿度 87%
风寒 3 °C
Kp-index 0 (0-9)

白天

日出
08:13
中午
12:42
日落
17:12 (4:03)

小工具

你想在你的网站上有一个关于Flugplatz Barßel的当前航空天气(METAR)的小部件吗?

显示HTML代码

我们和第三方通过cookies跟踪您在我们网站上的互联网行为。如果你继续,我们认为你同意我们的饼干政策